createdAt,value
2018-11-04T00:00:33.969Z,9.20
2018-11-04T00:03:02.367Z,10.60
2018-11-04T00:05:30.746Z,10.47
2018-11-04T00:07:59.175Z,10.00
2018-11-04T00:10:27.542Z,9.23
2018-11-04T00:12:55.938Z,9.70
2018-11-04T00:15:24.315Z,9.43
2018-11-04T00:17:52.706Z,9.37
2018-11-04T00:20:21.150Z,10.40
2018-11-04T00:22:49.519Z,8.43
2018-11-04T00:25:17.896Z,8.90
2018-11-04T00:27:46.330Z,9.80
2018-11-04T00:30:15.665Z,10.33
2018-11-04T00:32:44.575Z,9.77
2018-11-04T00:35:13.141Z,10.60
2018-11-04T00:37:41.550Z,9.20
2018-11-04T00:40:10.099Z,10.07
2018-11-04T00:42:38.602Z,11.07
2018-11-04T00:45:08.250Z,8.87
2018-11-04T00:47:36.907Z,9.10
2018-11-04T00:50:07.542Z,7.97
2018-11-04T00:52:35.944Z,9.20
2018-11-04T00:55:04.339Z,8.80
2018-11-04T00:57:32.837Z,7.57
2018-11-04T01:00:01.209Z,8.80
2018-11-04T01:02:29.667Z,8.27
2018-11-04T01:04:58.038Z,7.97
2018-11-04T01:07:26.433Z,7.73
2018-11-04T01:09:54.839Z,8.37
2018-11-04T01:12:23.225Z,8.77
2018-11-04T01:14:51.622Z,8.17
2018-11-04T01:17:19.996Z,8.20
2018-11-04T01:19:48.443Z,6.80
2018-11-04T01:22:16.810Z,7.33
2018-11-04T01:24:45.838Z,8.07
2018-11-04T01:27:14.226Z,7.90
2018-11-04T01:29:42.622Z,8.07
2018-11-04T01:32:10.990Z,8.80
2018-11-04T01:34:39.379Z,9.00
2018-11-04T01:37:07.753Z,9.00
2018-11-04T01:39:36.147Z,7.53
2018-11-04T01:42:04.844Z,8.40
2018-11-04T01:44:33.298Z,8.80
2018-11-04T01:47:01.671Z,8.37
2018-11-04T01:49:30.078Z,9.07
2018-11-04T01:51:58.455Z,7.13
2018-11-04T01:54:26.851Z,8.10
2018-11-04T01:56:55.217Z,7.93
2018-11-04T01:59:23.605Z,7.60
2018-11-04T02:01:51.978Z,7.67
2018-11-04T02:04:20.374Z,8.50
2018-11-04T02:06:48.761Z,9.60
2018-11-04T02:09:17.153Z,9.10
2018-11-04T02:11:45.542Z,8.90
2018-11-04T02:14:13.938Z,8.03
2018-11-04T02:16:42.582Z,8.40
2018-11-04T02:19:10.970Z,7.87
2018-11-04T02:21:39.333Z,6.97
2018-11-04T02:24:07.730Z,6.40
2018-11-04T02:26:36.111Z,8.03
2018-11-04T02:29:04.700Z,7.90
2018-11-04T02:31:33.066Z,7.20
2018-11-04T02:34:01.471Z,8.03
2018-11-04T02:36:29.843Z,6.50
2018-11-04T02:38:58.251Z,6.93
2018-11-04T02:41:26.644Z,7.20
2018-11-04T02:43:55.047Z,7.20
2018-11-04T02:46:23.455Z,7.43
2018-11-04T02:48:51.859Z,7.73
2018-11-04T02:51:20.231Z,6.37
2018-11-04T02:53:48.611Z,7.30
2018-11-04T02:56:16.990Z,6.90
2018-11-04T02:58:45.386Z,7.47
2018-11-04T03:01:13.774Z,7.47
2018-11-04T03:03:42.138Z,6.70
2018-11-04T03:06:10.526Z,7.77
2018-11-04T03:08:38.894Z,6.70
2018-11-04T03:11:07.274Z,6.43
2018-11-04T03:13:35.655Z,7.60
2018-11-04T03:16:04.046Z,6.30
2018-11-04T03:18:32.421Z,6.50
2018-11-04T03:21:00.810Z,7.37
2018-11-04T03:23:29.181Z,8.43
2018-11-04T03:25:57.664Z,7.50
2018-11-04T03:28:26.035Z,7.70
2018-11-04T03:30:54.415Z,7.43
2018-11-04T03:33:22.797Z,6.10
2018-11-04T03:35:51.187Z,7.40
2018-11-04T03:38:19.561Z,7.47
2018-11-04T03:40:47.978Z,7.30
2018-11-04T03:43:16.347Z,6.20
2018-11-04T03:45:44.754Z,6.37
2018-11-04T03:48:13.135Z,6.93
2018-11-04T03:50:41.514Z,6.50
2018-11-04T03:53:09.879Z,6.97
2018-11-04T03:55:38.562Z,7.60
2018-11-04T03:58:06.927Z,7.17
2018-11-04T04:00:35.322Z,6.90
2018-11-04T04:03:03.700Z,7.20
2018-11-04T04:05:32.129Z,8.37
2018-11-04T04:08:00.482Z,8.00
2018-11-04T04:10:28.885Z,9.07
2018-11-04T04:12:57.275Z,6.87
2018-11-04T04:15:25.679Z,7.20
2018-11-04T04:17:54.045Z,7.20
2018-11-04T04:20:22.457Z,7.77
2018-11-04T04:22:50.836Z,8.00
2018-11-04T04:25:19.225Z,8.30
2018-11-04T04:27:47.581Z,8.00
2018-11-04T04:30:15.975Z,8.17
2018-11-04T04:32:44.347Z,8.37
2018-11-04T04:35:12.747Z,8.47
2018-11-04T04:37:41.615Z,9.27
2018-11-04T04:40:10.324Z,9.17
2018-11-04T04:42:38.694Z,8.00
2018-11-04T04:45:07.064Z,8.60
2018-11-04T04:47:35.667Z,9.00
2018-11-04T04:50:04.258Z,10.10
2018-11-04T04:52:32.638Z,9.90
2018-11-04T04:55:01.012Z,10.40
2018-11-04T04:57:29.406Z,10.13
2018-11-04T04:59:57.779Z,10.03
2018-11-04T05:02:26.187Z,11.10
2018-11-04T05:04:54.559Z,9.73
2018-11-04T05:07:22.954Z,10.50
2018-11-04T05:09:51.336Z,11.70
2018-11-04T05:12:19.728Z,10.90
2018-11-04T05:14:48.123Z,11.73
2018-11-04T05:17:16.523Z,12.20
2018-11-04T05:19:44.891Z,13.43
2018-11-04T05:22:13.291Z,13.27
2018-11-04T05:24:41.661Z,14.87
2018-11-04T05:27:10.056Z,15.70
2018-11-04T05:29:38.421Z,16.97
2018-11-04T05:32:06.919Z,18.40
2018-11-04T05:34:35.295Z,19.27
2018-11-04T05:37:03.690Z,22.37
2018-11-04T05:39:32.058Z,22.50
2018-11-04T05:42:00.478Z,22.47
2018-11-04T05:44:28.859Z,24.83
2018-11-04T05:46:57.262Z,23.80
2018-11-04T05:49:25.628Z,25.00
2018-11-04T05:51:54.019Z,26.13
2018-11-04T05:54:22.399Z,26.27
2018-11-04T05:56:50.789Z,23.53
2018-11-04T05:59:19.162Z,24.43
2018-11-04T06:01:47.577Z,24.20
2018-11-04T06:04:15.963Z,23.30
2018-11-04T06:06:44.353Z,24.50
2018-11-04T06:09:12.727Z,24.93
2018-11-04T06:11:41.144Z,24.60
2018-11-04T06:14:09.506Z,24.10
2018-11-04T06:16:37.892Z,22.70
2018-11-04T06:19:06.407Z,24.90
2018-11-04T06:21:34.815Z,25.47
2018-11-04T06:24:03.191Z,25.30
2018-11-04T06:26:31.613Z,24.03
2018-11-04T06:28:59.986Z,24.07
2018-11-04T06:31:28.360Z,23.67
2018-11-04T06:33:56.759Z,23.40
2018-11-04T06:36:25.139Z,24.50
2018-11-04T06:38:53.534Z,23.73
2018-11-04T06:41:21.936Z,24.43
2018-11-04T06:43:50.326Z,24.83
2018-11-04T06:46:18.708Z,24.03
2018-11-04T06:48:47.107Z,21.97
2018-11-04T06:51:15.479Z,22.43
2018-11-04T06:53:43.870Z,24.20
2018-11-04T06:56:12.238Z,21.83
2018-11-04T06:58:40.631Z,23.23
2018-11-04T07:01:09.050Z,23.27
2018-11-04T07:03:37.575Z,24.80
2018-11-04T07:06:05.943Z,23.83
2018-11-04T07:08:34.331Z,24.70
2018-11-04T07:11:02.704Z,23.60
2018-11-04T07:13:31.099Z,25.00
2018-11-04T07:15:59.475Z,25.73
2018-11-04T07:18:27.863Z,23.60
2018-11-04T07:20:56.244Z,21.60
2018-11-04T07:23:24.643Z,24.13
2018-11-04T07:25:53.007Z,22.63
2018-11-04T07:28:23.054Z,24.80
2018-11-04T07:30:51.439Z,23.77
2018-11-04T07:33:19.834Z,23.37
2018-11-04T07:35:48.207Z,22.70
2018-11-04T07:38:16.603Z,21.50
2018-11-04T07:40:45.000Z,21.63
2018-11-04T07:43:13.395Z,22.80
2018-11-04T07:45:41.771Z,22.47
2018-11-04T07:48:10.183Z,22.97
2018-11-04T07:50:38.740Z,21.77
2018-11-04T07:53:07.079Z,20.57
2018-11-04T07:55:35.454Z,21.23
2018-11-04T07:58:03.842Z,22.30
2018-11-04T08:00:32.211Z,21.57
2018-11-04T08:03:00.602Z,21.30
2018-11-04T08:05:28.980Z,22.87
2018-11-04T08:07:57.369Z,22.60
2018-11-04T08:10:25.751Z,18.97
2018-11-04T08:12:54.151Z,22.97
2018-11-04T08:15:22.517Z,21.57
2018-11-04T08:17:50.933Z,22.47
2018-11-04T08:20:19.304Z,22.47
2018-11-04T08:22:47.675Z,22.90
2018-11-04T08:25:16.079Z,21.40
2018-11-04T08:27:44.490Z,22.37
2018-11-04T08:30:12.893Z,22.30
2018-11-04T08:32:41.271Z,22.70
2018-11-04T08:35:09.682Z,22.30
2018-11-04T08:37:38.051Z,21.50
2018-11-04T08:40:07.056Z,22.67
2018-11-04T08:42:35.376Z,22.43
2018-11-04T08:45:03.836Z,22.90
2018-11-04T08:47:32.202Z,23.70
2018-11-04T08:50:00.604Z,22.23
2018-11-04T08:52:29.052Z,24.20
2018-11-04T08:54:57.689Z,24.57
2018-11-04T08:57:26.063Z,23.70
2018-11-04T08:59:54.491Z,23.67
2018-11-04T09:02:22.871Z,24.83
2018-11-04T09:04:51.263Z,23.80
2018-11-04T09:07:19.630Z,26.37
2018-11-04T09:09:48.047Z,27.50
2018-11-04T09:12:16.573Z,25.50
2018-11-04T09:14:44.971Z,23.07
2018-11-04T09:17:13.344Z,25.30
2018-11-04T09:19:41.739Z,25.30
2018-11-04T09:22:10.243Z,27.90
2018-11-04T09:24:38.598Z,27.40
2018-11-04T09:27:06.971Z,29.10
2018-11-04T09:29:43.687Z,24.90
2018-11-04T09:32:12.055Z,25.23
2018-11-04T09:34:40.524Z,26.43
2018-11-04T09:37:08.880Z,26.10
2018-11-04T09:39:37.271Z,26.00
2018-11-04T09:42:05.955Z,24.13
2018-11-04T09:44:34.351Z,26.90
2018-11-04T09:47:02.718Z,25.90
2018-11-04T09:49:31.123Z,24.53
2018-11-04T09:51:59.490Z,23.47
2018-11-04T09:54:27.890Z,25.10
2018-11-04T09:56:56.262Z,25.90
2018-11-04T09:59:24.659Z,24.37
2018-11-04T10:01:53.030Z,24.10
2018-11-04T10:04:21.397Z,24.20
2018-11-04T10:06:49.791Z,25.00
2018-11-04T10:09:18.154Z,26.13
2018-11-04T10:11:46.555Z,24.00
2018-11-04T10:14:14.927Z,25.67
2018-11-04T10:16:43.332Z,28.17
2018-11-04T10:19:11.857Z,26.77
2018-11-04T10:21:40.131Z,29.40
2018-11-04T10:24:08.510Z,32.97
2018-11-04T10:26:36.901Z,35.07
2018-11-04T10:29:05.590Z,32.00
2018-11-04T10:31:34.004Z,29.20
2018-11-04T10:34:02.523Z,29.63
2018-11-04T10:36:30.922Z,26.63
2018-11-04T10:38:59.291Z,25.30
2018-11-04T10:41:27.710Z,25.03
2018-11-04T10:43:56.081Z,25.00
2018-11-04T10:46:24.480Z,26.40
2018-11-04T10:48:53.007Z,27.53
2018-11-04T10:51:21.403Z,28.03
2018-11-04T10:53:49.774Z,26.20
2018-11-04T10:56:18.170Z,29.20
2018-11-04T10:58:46.577Z,28.43
2018-11-04T11:01:14.975Z,27.43
2018-11-04T11:03:43.358Z,28.43
2018-11-04T11:06:11.767Z,29.37
2018-11-04T11:08:40.134Z,28.53
2018-11-04T11:11:08.647Z,31.40
2018-11-04T11:13:37.026Z,31.07
2018-11-04T11:16:05.643Z,31.60
2018-11-04T11:18:34.019Z,28.30
2018-11-04T11:21:02.425Z,30.80
2018-11-04T11:23:30.798Z,29.60
2018-11-04T11:25:59.189Z,32.13
2018-11-04T11:28:27.579Z,31.50
2018-11-04T11:30:55.983Z,32.80
2018-11-04T11:33:24.363Z,33.13
2018-11-04T11:35:52.863Z,31.93
2018-11-04T11:38:21.242Z,31.10
2018-11-04T11:40:49.671Z,34.20
2018-11-04T11:43:18.054Z,33.00
2018-11-04T11:45:46.436Z,32.40
2018-11-04T11:48:14.844Z,35.70
2018-11-04T11:50:43.229Z,35.40
2018-11-04T11:53:11.815Z,35.57
2018-11-04T11:55:40.191Z,38.00
2018-11-04T11:58:08.691Z,36.70
2018-11-04T12:00:37.080Z,35.87
2018-11-04T12:03:05.778Z,34.13
2018-11-04T12:05:34.155Z,36.10
2018-11-04T12:08:02.552Z,36.50
2018-11-04T12:10:30.931Z,34.57
2018-11-04T12:12:59.344Z,35.17
2018-11-04T12:15:27.736Z,35.33
2018-11-04T12:17:56.189Z,36.50
2018-11-04T12:20:24.541Z,35.10
2018-11-04T12:22:52.943Z,37.40
2018-11-04T12:25:21.323Z,37.07
2018-11-04T12:27:49.720Z,35.93
2018-11-04T12:30:18.095Z,36.10
2018-11-04T12:32:46.635Z,36.90
2018-11-04T12:35:15.118Z,34.90
2018-11-04T12:37:43.588Z,37.20
2018-11-04T12:40:12.946Z,37.53
2018-11-04T12:42:41.343Z,34.10
2018-11-04T12:45:11.154Z,34.97
2018-11-04T12:47:39.541Z,36.17
2018-11-04T12:50:09.103Z,35.30
2018-11-04T12:52:37.535Z,35.40
2018-11-04T12:55:06.326Z,36.47
2018-11-04T12:57:35.094Z,36.30
2018-11-04T13:00:03.884Z,34.80
2018-11-04T13:02:32.287Z,35.57
2018-11-04T13:05:00.663Z,38.90
2018-11-04T13:07:29.103Z,35.17
2018-11-04T13:09:57.588Z,36.47
2018-11-04T13:12:26.414Z,38.70
2018-11-04T13:14:54.791Z,35.33
2018-11-04T13:17:23.182Z,35.20
2018-11-04T13:19:51.555Z,34.40
2018-11-04T13:22:19.963Z,38.27
2018-11-04T13:24:48.338Z,35.27
2018-11-04T13:27:16.734Z,36.47
2018-11-04T13:29:45.111Z,35.77
2018-11-04T13:32:13.513Z,36.17
2018-11-04T13:34:41.874Z,34.63
2018-11-04T13:37:10.278Z,36.27
2018-11-04T13:39:38.692Z,37.50
2018-11-04T13:42:07.085Z,38.80
2018-11-04T13:44:35.540Z,36.00
2018-11-04T13:47:03.928Z,37.83
2018-11-04T13:49:32.436Z,36.40
2018-11-04T13:52:00.734Z,33.13
2018-11-04T13:54:29.278Z,35.30
2018-11-04T13:56:57.646Z,36.20
2018-11-04T13:59:26.043Z,36.37
2018-11-04T14:01:54.421Z,37.50
2018-11-04T14:04:22.819Z,38.50
2018-11-04T14:06:51.198Z,37.07
2018-11-04T14:09:19.589Z,37.30
2018-11-04T14:11:47.976Z,36.73
2018-11-04T14:14:16.385Z,39.10
2018-11-04T14:16:44.770Z,38.77
2018-11-04T14:19:13.639Z,38.00
2018-11-04T14:21:42.006Z,37.80
2018-11-04T14:24:10.423Z,39.30
2018-11-04T14:26:38.831Z,39.17
2018-11-04T14:29:07.230Z,39.13
2018-11-04T14:31:35.619Z,38.53
2018-11-04T14:34:04.070Z,38.23
2018-11-04T14:36:32.440Z,37.87
2018-11-04T14:39:00.856Z,39.10
2018-11-04T14:41:29.260Z,40.00
2018-11-04T14:43:57.663Z,36.93
2018-11-04T14:46:26.047Z,36.67
2018-11-04T14:48:54.446Z,37.20
2018-11-04T14:51:22.846Z,37.83
2018-11-04T14:53:51.266Z,38.70
2018-11-04T14:56:21.831Z,38.73
2018-11-04T14:58:50.231Z,36.90
2018-11-04T15:01:18.643Z,36.47
2018-11-04T15:03:47.060Z,37.47
2018-11-04T15:06:15.443Z,39.03
2018-11-04T15:08:43.865Z,38.30
2018-11-04T15:11:12.292Z,38.60
2018-11-04T15:13:40.711Z,38.37
2018-11-04T15:16:09.083Z,38.47
2018-11-04T15:18:37.567Z,39.33
2018-11-04T15:21:05.883Z,36.23
2018-11-04T15:23:34.287Z,37.63
2018-11-04T15:26:02.667Z,37.10
2018-11-04T15:28:31.067Z,36.17
2018-11-04T15:30:59.462Z,36.70
2018-11-04T15:33:27.852Z,38.17
2018-11-04T15:35:56.251Z,38.87
2018-11-04T15:38:24.677Z,38.80
2018-11-04T15:40:53.087Z,37.00
2018-11-04T15:43:21.462Z,36.63
2018-11-04T15:45:50.056Z,39.37
2018-11-04T15:48:18.435Z,40.77
2018-11-04T15:50:46.831Z,39.20
2018-11-04T15:53:15.211Z,39.67
2018-11-04T15:55:43.621Z,39.67
2018-11-04T15:58:11.998Z,42.13
2018-11-04T16:00:40.396Z,41.43
2018-11-04T16:03:08.787Z,39.90
2018-11-04T16:05:37.205Z,40.57
2018-11-04T16:08:06.402Z,42.70
2018-11-04T16:10:34.811Z,43.60
2018-11-04T16:13:03.195Z,44.17
2018-11-04T16:15:31.594Z,42.80
2018-11-04T16:17:59.985Z,43.23
2018-11-04T16:20:28.396Z,44.37
2018-11-04T16:22:56.775Z,43.17
2018-11-04T16:25:25.222Z,42.60
2018-11-04T16:27:53.582Z,43.30
2018-11-04T16:30:21.987Z,42.07
2018-11-04T16:32:50.371Z,41.97
2018-11-04T16:35:18.830Z,43.60
2018-11-04T16:37:47.349Z,43.00
2018-11-04T16:40:15.647Z,43.63
2018-11-04T16:42:44.015Z,43.50
2018-11-04T16:45:14.336Z,42.90
2018-11-04T16:47:42.716Z,43.03
2018-11-04T16:50:12.226Z,44.70
2018-11-04T16:52:40.894Z,43.57
2018-11-04T16:55:10.314Z,42.80
2018-11-04T16:57:38.698Z,44.07
2018-11-04T17:00:08.131Z,44.90
2018-11-04T17:02:36.966Z,46.20
2018-11-04T17:05:05.626Z,46.10
2018-11-04T17:07:34.015Z,43.30
2018-11-04T17:10:02.424Z,44.83
2018-11-04T17:12:30.800Z,44.27
2018-11-04T17:14:59.198Z,44.63
2018-11-04T17:17:27.577Z,42.30
2018-11-04T17:19:56.019Z,42.97
2018-11-04T17:22:24.431Z,46.83
2018-11-04T17:24:52.834Z,44.17
2018-11-04T17:27:21.239Z,44.23
2018-11-04T17:29:49.623Z,47.43
2018-11-04T17:32:18.027Z,45.27
2018-11-04T17:34:46.406Z,45.50
2018-11-04T17:37:14.806Z,48.00
2018-11-04T17:39:43.177Z,44.67
2018-11-04T17:42:11.607Z,43.33
2018-11-04T17:44:40.068Z,44.90
2018-11-04T17:47:08.415Z,48.20
2018-11-04T17:49:36.803Z,46.30
2018-11-04T17:52:05.222Z,48.43
2018-11-04T17:54:33.638Z,45.97
2018-11-04T17:57:02.047Z,45.83
2018-11-04T17:59:30.432Z,45.40
2018-11-04T18:01:58.835Z,45.80
2018-11-04T18:04:27.226Z,46.47
2018-11-04T18:06:55.633Z,46.83
2018-11-04T18:09:24.008Z,46.67
2018-11-04T18:11:52.406Z,44.57
2018-11-04T18:14:20.796Z,42.93
2018-11-04T18:16:49.207Z,45.40
2018-11-04T18:19:17.601Z,50.87
2018-11-04T18:21:46.117Z,46.17
2018-11-04T18:24:14.495Z,48.87
2018-11-04T18:26:42.950Z,50.20
2018-11-04T18:29:11.299Z,47.77
2018-11-04T18:31:39.727Z,44.70
2018-11-04T18:34:08.124Z,46.93
2018-11-04T18:36:36.517Z,48.13
2018-11-04T18:39:06.770Z,48.20
2018-11-04T18:41:35.343Z,49.83
2018-11-04T18:44:03.779Z,46.80
2018-11-04T18:46:32.196Z,43.80
2018-11-04T18:49:00.588Z,51.80
2018-11-04T18:51:29.324Z,45.37
2018-11-04T18:53:57.702Z,47.63
2018-11-04T18:56:26.110Z,51.73
2018-11-04T18:58:54.515Z,50.30
2018-11-04T19:01:23.208Z,52.37
2018-11-04T19:03:51.591Z,53.40
2018-11-04T19:06:20.091Z,53.53
2018-11-04T19:08:48.576Z,47.47
2018-11-04T19:11:17.010Z,50.13
2018-11-04T19:13:45.418Z,53.50
2018-11-04T19:16:13.802Z,47.17
2018-11-04T19:18:42.486Z,49.97
2018-11-04T19:21:10.838Z,53.13
2018-11-04T19:23:39.246Z,50.63
2018-11-04T19:26:07.658Z,52.00
2018-11-04T19:28:36.104Z,50.67
2018-11-04T19:31:04.524Z,53.30
2018-11-04T19:33:32.916Z,51.20
2018-11-04T19:36:01.303Z,51.80
2018-11-04T19:38:29.736Z,49.53
2018-11-04T19:40:58.178Z,53.30
2018-11-04T19:43:26.593Z,52.80
2018-11-04T19:45:54.983Z,52.50
2018-11-04T19:48:23.396Z,51.43
2018-11-04T19:50:51.817Z,54.77
2018-11-04T19:53:20.248Z,53.50
2018-11-04T19:55:48.633Z,52.77
2018-11-04T19:58:17.048Z,54.90
2018-11-04T20:00:45.431Z,53.33
2018-11-04T20:03:13.839Z,52.00
2018-11-04T20:05:42.227Z,54.73
2018-11-04T20:08:10.639Z,49.70
2018-11-04T20:10:39.076Z,51.90
2018-11-04T20:13:12.790Z,55.43
2018-11-04T20:15:41.167Z,54.60
2018-11-04T20:18:15.032Z,52.30
2018-11-04T20:20:43.561Z,51.20
2018-11-04T20:23:12.141Z,51.10
2018-11-04T20:25:45.895Z,51.50
2018-11-04T20:28:14.743Z,48.70
2018-11-04T20:30:43.728Z,49.80
2018-11-04T20:33:13.761Z,47.70
2018-11-04T20:35:42.146Z,47.97
2018-11-04T20:38:10.560Z,44.90
2018-11-04T20:40:44.282Z,47.20
2018-11-04T20:43:12.678Z,46.27
2018-11-04T20:45:41.057Z,42.27
2018-11-04T20:48:14.795Z,44.57
2018-11-04T20:50:48.422Z,36.80
2018-11-04T20:53:16.823Z,42.73
2018-11-04T20:55:50.500Z,40.27
2018-11-04T20:58:19.113Z,41.60
2018-11-04T21:00:47.413Z,40.37
2018-11-04T21:03:15.814Z,40.20
2018-11-04T21:05:44.194Z,39.47
2018-11-04T21:08:12.595Z,38.30
2018-11-04T21:10:40.976Z,38.00
2018-11-04T21:13:09.436Z,35.43
2018-11-04T21:15:37.836Z,36.37
2018-11-04T21:18:06.332Z,39.40
2018-11-04T21:20:34.734Z,35.03
2018-11-04T21:23:03.111Z,37.27
2018-11-04T21:25:31.569Z,36.47
2018-11-04T21:27:59.970Z,35.63
2018-11-04T21:30:28.355Z,36.50
2018-11-04T21:32:56.744Z,34.90
2018-11-04T21:35:25.143Z,34.67
2018-11-04T21:37:53.619Z,33.47
2018-11-04T21:40:21.994Z,38.40
2018-11-04T21:42:50.530Z,35.87
2018-11-04T21:45:18.787Z,38.00
2018-11-04T21:47:47.166Z,37.73
2018-11-04T21:50:15.558Z,37.80
2018-11-04T21:52:43.944Z,38.40
2018-11-04T21:55:13.348Z,37.50
2018-11-04T21:57:42.783Z,42.03
2018-11-04T22:00:13.031Z,39.70
2018-11-04T22:02:41.605Z,38.30
2018-11-04T22:05:10.610Z,36.73
2018-11-04T22:07:39.397Z,39.90
2018-11-04T22:10:10.030Z,36.17
2018-11-04T22:12:38.599Z,38.90
2018-11-04T22:15:07.091Z,36.77
2018-11-04T22:17:35.655Z,37.67
2018-11-04T22:20:04.328Z,40.73
2018-11-04T22:22:32.716Z,34.73
2018-11-04T22:25:01.119Z,34.57
2018-11-04T22:27:29.495Z,35.20
2018-11-04T22:29:57.886Z,33.47
2018-11-04T22:32:26.262Z,35.03
2018-11-04T22:34:54.662Z,34.60
2018-11-04T22:37:23.051Z,35.83
2018-11-04T22:39:51.462Z,36.17
2018-11-04T22:42:19.974Z,34.93
2018-11-04T22:44:48.295Z,34.97
2018-11-04T22:47:16.687Z,37.07
2018-11-04T22:49:45.096Z,31.87
2018-11-04T22:52:13.475Z,38.33
2018-11-04T22:54:41.886Z,37.60
2018-11-04T22:57:10.262Z,37.87
2018-11-04T22:59:38.655Z,36.37
2018-11-04T23:02:07.037Z,36.67
2018-11-04T23:04:40.895Z,36.83
2018-11-04T23:07:09.280Z,34.77
2018-11-04T23:09:37.703Z,33.10
2018-11-04T23:12:06.176Z,34.03
2018-11-04T23:14:34.551Z,35.03
2018-11-04T23:17:02.947Z,32.57
2018-11-04T23:19:31.324Z,35.20
2018-11-04T23:21:59.733Z,32.80
2018-11-04T23:24:28.125Z,35.93
2018-11-04T23:26:56.535Z,33.53
2018-11-04T23:29:24.923Z,31.10
2018-11-04T23:31:53.326Z,32.43
2018-11-04T23:34:21.710Z,29.70
2018-11-04T23:36:50.127Z,30.53
2018-11-04T23:39:18.506Z,27.27
2018-11-04T23:41:46.931Z,27.93
2018-11-04T23:44:15.311Z,29.73
2018-11-04T23:46:43.707Z,30.30
2018-11-04T23:49:12.711Z,28.63
2018-11-04T23:51:41.102Z,26.37
2018-11-04T23:54:09.514Z,25.60
2018-11-04T23:56:37.911Z,26.77
2018-11-04T23:59:06.291Z,26.87
